Skip Navigation Links Skip Navigation Links

Current Weather

Baltimore-Washington Intl, Baltimore

For information only: do not use for flight planning or navigation.
Latest weather
Observation time Sunday, August 1, 2021 5:54 AM EDT
Local time Sunday, August 1, 2021 6:36 AM EDT
Flight conditions Visual Meteorological Conditions
Winds
Wind speed calm
Visibility 10 mi.
Sky condition
Ceiling 9,000 ft. overcast
Cloud layer few clouds 3,000 ft.
Cloud layer overcast 9,000 ft.
Temperature 70°F
Dewpoint 66°F
Altimeter 29.89 in.Hg
Derived measurements
Relative humidity 87%
Density altitude 1191 ft.
Sea-level pressure 29.89 in.Hg
Remarks
Automated weather observing station with precipitation discriminator.
METAR KBWI 010954Z 00000KT 10SM FEW030 OVC090 21/19 A2989 RMK AO2 SLP121 T02110189

Settings

Location code

InnerDrive.Weather 4.0.6770.0 Release CLR 4.0.30319.42000
Copyright ©2018 Inner Drive Technology. All rights reserved. Portions Copyright ©1986-2018 David Braverman.

Find weather

Site navigation


Skip Navigation Links

Place info

Page info

PayPal - The safer, easier way to pay online!

Return home.

Copyright ©2021 Inner Drive Technology. Purveyors of fine, hand-crafted computer software. Page printed 2021-08-01T10:36:42 UTC.